sensor_id;sensor_type;location;lat;lon;timestamp;pressure;altitude;pressure_sealevel;temperature
44429;BMP180;30134;47.866;-4.222;2023-11-22T00:00:59;102584.00;;;20.00
44429;BMP180;30134;47.866;-4.222;2023-11-22T00:03:26;102588.00;;;20.30
44429;BMP180;30134;47.866;-4.222;2023-11-22T00:05:52;102584.00;;;20.30
44429;BMP180;30134;47.866;-4.222;2023-11-22T00:08:19;102597.00;;;20.40
44429;BMP180;30134;47.866;-4.222;2023-11-22T00:10:45;102593.00;;;20.50
44429;BMP180;30134;47.866;-4.222;2023-11-22T00:13:11;102584.00;;;20.60
44429;BMP180;30134;47.866;-4.222;2023-11-22T00:15:38;102579.00;;;20.70
44429;BMP180;30134;47.866;-4.222;2023-11-22T00:18:04;102580.00;;;20.80
44429;BMP180;30134;47.866;-4.222;2023-11-22T00:20:30;102588.00;;;20.80
44429;BMP180;30134;47.866;-4.222;2023-11-22T00:22:57;102595.00;;;20.90
44429;BMP180;30134;47.866;-4.222;2023-11-22T00:25:23;102590.00;;;21.00
44429;BMP180;30134;47.866;-4.222;2023-11-22T00:27:50;102587.00;;;21.00
44429;BMP180;30134;47.866;-4.222;2023-11-22T00:30:16;102580.00;;;21.00
44429;BMP180;30134;47.866;-4.222;2023-11-22T00:32:43;102579.00;;;21.00
44429;BMP180;30134;47.866;-4.222;2023-11-22T00:35:09;102568.00;;;21.10
44429;BMP180;30134;47.866;-4.222;2023-11-22T00:37:35;102569.00;;;21.20
44429;BMP180;30134;47.866;-4.222;2023-11-22T00:40:02;102579.00;;;21.20
44429;BMP180;30134;47.866;-4.222;2023-11-22T00:42:40;102574.00;;;21.20
44429;BMP180;30134;47.866;-4.222;2023-11-22T00:45:09;102565.00;;;21.20
44429;BMP180;30134;47.866;-4.222;2023-11-22T00:47:36;102556.00;;;21.30
44429;BMP180;30134;47.866;-4.222;2023-11-22T00:50:03;102560.00;;;21.30
44429;BMP180;30134;47.866;-4.222;2023-11-22T00:52:31;102564.00;;;21.40
44429;BMP180;30134;47.866;-4.222;2023-11-22T00:54:57;102557.00;;;21.30
44429;BMP180;30134;47.866;-4.222;2023-11-22T00:57:24;102551.00;;;21.40
44429;BMP180;30134;47.866;-4.222;2023-11-22T00:59:53;102553.00;;;21.40
44429;BMP180;30134;47.866;-4.222;2023-11-22T01:02:20;102557.00;;;21.40
44429;BMP180;30134;47.866;-4.222;2023-11-22T01:04:46;102564.00;;;21.40
44429;BMP180;30134;47.866;-4.222;2023-11-22T01:07:12;102563.00;;;21.40
44429;BMP180;30134;47.866;-4.222;2023-11-22T01:09:38;102560.00;;;21.50
44429;BMP180;30134;47.866;-4.222;2023-11-22T01:12:06;102557.00;;;21.50
44429;BMP180;30134;47.866;-4.222;2023-11-22T01:14:35;102561.00;;;21.50
44429;BMP180;30134;47.866;-4.222;2023-11-22T01:17:01;102561.00;;;21.50
44429;BMP180;30134;47.866;-4.222;2023-11-22T01:19:28;102564.00;;;21.60
44429;BMP180;30134;47.866;-4.222;2023-11-22T01:21:54;102566.00;;;21.60
44429;BMP180;30134;47.866;-4.222;2023-11-22T01:24:20;102558.00;;;21.60
44429;BMP180;30134;47.866;-4.222;2023-11-22T01:26:47;102558.00;;;21.60
44429;BMP180;30134;47.866;-4.222;2023-11-22T01:29:16;102561.00;;;21.60
44429;BMP180;30134;47.866;-4.222;2023-11-22T01:31:42;102564.00;;;21.70
44429;BMP180;30134;47.866;-4.222;2023-11-22T01:34:09;102563.00;;;21.60
44429;BMP180;30134;47.866;-4.222;2023-11-22T01:36:39;102558.00;;;21.70
44429;BMP180;30134;47.866;-4.222;2023-11-22T01:39:07;102563.00;;;21.70
44429;BMP180;30134;47.866;-4.222;2023-11-22T01:41:33;102572.00;;;21.70
44429;BMP180;30134;47.866;-4.222;2023-11-22T01:44:00;102580.00;;;21.70
44429;BMP180;30134;47.866;-4.222;2023-11-22T01:46:28;102589.00;;;21.70
44429;BMP180;30134;47.866;-4.222;2023-11-22T01:48:55;102592.00;;;21.70
44429;BMP180;30134;47.866;-4.222;2023-11-22T01:51:22;102585.00;;;21.80
44429;BMP180;30134;47.866;-4.222;2023-11-22T01:53:55;102595.00;;;21.80
44429;BMP180;30134;47.866;-4.222;2023-11-22T01:56:27;102602.00;;;21.80
44429;BMP180;30134;47.866;-4.222;2023-11-22T01:58:55;102610.00;;;21.80
44429;BMP180;30134;47.866;-4.222;2023-11-22T02:01:22;102611.00;;;21.80
44429;BMP180;30134;47.866;-4.222;2023-11-22T02:03:49;102610.00;;;21.80
44429;BMP180;30134;47.866;-4.222;2023-11-22T02:06:19;102617.00;;;21.80
44429;BMP180;30134;47.866;-4.222;2023-11-22T02:08:46;102616.00;;;21.80
44429;BMP180;30134;47.866;-4.222;2023-11-22T02:11:12;102621.00;;;21.80
44429;BMP180;30134;47.866;-4.222;2023-11-22T02:13:40;102613.00;;;21.80
44429;BMP180;30134;47.866;-4.222;2023-11-22T02:16:07;102622.00;;;21.90
44429;BMP180;30134;47.866;-4.222;2023-11-22T02:18:35;102632.00;;;21.90
44429;BMP180;30134;47.866;-4.222;2023-11-22T02:21:05;102630.00;;;21.90
44429;BMP180;30134;47.866;-4.222;2023-11-22T02:23:33;102635.00;;;21.90
44429;BMP180;30134;47.866;-4.222;2023-11-22T02:26:00;102630.00;;;21.90
44429;BMP180;30134;47.866;-4.222;2023-11-22T02:28:30;102631.00;;;21.90
44429;BMP180;30134;47.866;-4.222;2023-11-22T02:30:58;102645.00;;;21.90
44429;BMP180;30134;47.866;-4.222;2023-11-22T02:33:25;102658.00;;;21.90
44429;BMP180;30134;47.866;-4.222;2023-11-22T02:35:53;102656.00;;;21.90
44429;BMP180;30134;47.866;-4.222;2023-11-22T02:38:21;102666.00;;;21.90
44429;BMP180;30134;47.866;-4.222;2023-11-22T02:40:49;102656.00;;;21.90
44429;BMP180;30134;47.866;-4.222;2023-11-22T02:43:17;102657.00;;;22.00
44429;BMP180;30134;47.866;-4.222;2023-11-22T02:45:45;102655.00;;;22.00
44429;BMP180;30134;47.866;-4.222;2023-11-22T02:48:12;102647.00;;;22.00
44429;BMP180;30134;47.866;-4.222;2023-11-22T02:50:40;102647.00;;;21.90
44429;BMP180;30134;47.866;-4.222;2023-11-22T02:53:12;102652.00;;;22.00
44429;BMP180;30134;47.866;-4.222;2023-11-22T02:55:40;102653.00;;;22.00
44429;BMP180;30134;47.866;-4.222;2023-11-22T02:58:08;102653.00;;;22.00
44429;BMP180;30134;47.866;-4.222;2023-11-22T03:00:36;102647.00;;;22.00
44429;BMP180;30134;47.866;-4.222;2023-11-22T03:03:04;102638.00;;;22.00
44429;BMP180;30134;47.866;-4.222;2023-11-22T03:05:38;102644.00;;;22.00
44429;BMP180;30134;47.866;-4.222;2023-11-22T03:08:09;102651.00;;;22.00
44429;BMP180;30134;47.866;-4.222;2023-11-22T03:10:38;102657.00;;;22.00
44429;BMP180;30134;47.866;-4.222;2023-11-22T03:13:08;102660.00;;;22.00
44429;BMP180;30134;47.866;-4.222;2023-11-22T03:15:38;102657.00;;;22.00
44429;BMP180;30134;47.866;-4.222;2023-11-22T03:18:08;102663.00;;;22.10
44429;BMP180;30134;47.866;-4.222;2023-11-22T03:20:37;102668.00;;;22.10
44429;BMP180;30134;47.866;-4.222;2023-11-22T03:23:07;102669.00;;;22.10
44429;BMP180;30134;47.866;-4.222;2023-11-22T03:25:39;102673.00;;;22.10
44429;BMP180;30134;47.866;-4.222;2023-11-22T03:28:09;102668.00;;;22.10
44429;BMP180;30134;47.866;-4.222;2023-11-22T03:30:38;102667.00;;;22.00
44429;BMP180;30134;47.866;-4.222;2023-11-22T03:33:09;102668.00;;;22.10
44429;BMP180;30134;47.866;-4.222;2023-11-22T03:35:39;102681.00;;;22.10
44429;BMP180;30134;47.866;-4.222;2023-11-22T03:38:09;102677.00;;;22.10
44429;BMP180;30134;47.866;-4.222;2023-11-22T03:40:39;102682.00;;;22.10
44429;BMP180;30134;47.866;-4.222;2023-11-22T03:43:09;102678.00;;;22.10
44429;BMP180;30134;47.866;-4.222;2023-11-22T03:45:39;102679.00;;;22.10
44429;BMP180;30134;47.866;-4.222;2023-11-22T03:48:09;102688.00;;;22.10
44429;BMP180;30134;47.866;-4.222;2023-11-22T03:50:38;102692.00;;;22.20
44429;BMP180;30134;47.866;-4.222;2023-11-22T03:53:08;102691.00;;;22.10
44429;BMP180;30134;47.866;-4.222;2023-11-22T03:55:38;102704.00;;;22.10
44429;BMP180;30134;47.866;-4.222;2023-11-22T03:58:08;102704.00;;;22.10
44429;BMP180;30134;47.866;-4.222;2023-11-22T04:00:39;102705.00;;;22.10
44429;BMP180;30134;47.866;-4.222;2023-11-22T04:03:08;102701.00;;;22.10
44429;BMP180;30134;47.866;-4.222;2023-11-22T04:05:38;102712.00;;;22.00
44429;BMP180;30134;47.866;-4.222;2023-11-22T04:08:11;102713.00;;;22.20
44429;BMP180;30134;47.866;-4.222;2023-11-22T04:10:41;102706.00;;;22.10
44429;BMP180;30134;47.866;-4.222;2023-11-22T04:13:10;102704.00;;;22.10
44429;BMP180;30134;47.866;-4.222;2023-11-22T04:15:40;102694.00;;;22.10
44429;BMP180;30134;47.866;-4.222;2023-11-22T04:18:09;102693.00;;;22.10
44429;BMP180;30134;47.866;-4.222;2023-11-22T04:20:41;102699.00;;;22.10
44429;BMP180;30134;47.866;-4.222;2023-11-22T04:23:13;102700.00;;;22.10
44429;BMP180;30134;47.866;-4.222;2023-11-22T04:25:46;102700.00;;;22.10
44429;BMP180;30134;47.866;-4.222;2023-11-22T04:28:21;102706.00;;;22.20
44429;BMP180;30134;47.866;-4.222;2023-11-22T04:30:53;102716.00;;;22.10
44429;BMP180;30134;47.866;-4.222;2023-11-22T04:33:25;102719.00;;;22.20
44429;BMP180;30134;47.866;-4.222;2023-11-22T04:35:59;102709.00;;;22.10
44429;BMP180;30134;47.866;-4.222;2023-11-22T04:38:32;102717.00;;;22.10
44429;BMP180;30134;47.866;-4.222;2023-11-22T04:41:05;102722.00;;;22.20
44429;BMP180;30134;47.866;-4.222;2023-11-22T04:43:37;102719.00;;;22.20
44429;BMP180;30134;47.866;-4.222;2023-11-22T04:46:09;102719.00;;;22.10
44429;BMP180;30134;47.866;-4.222;2023-11-22T04:48:40;102729.00;;;22.10
44429;BMP180;30134;47.866;-4.222;2023-11-22T04:51:16;102737.00;;;22.20
44429;BMP180;30134;47.866;-4.222;2023-11-22T04:53:47;102743.00;;;22.10
44429;BMP180;30134;47.866;-4.222;2023-11-22T04:56:19;102740.00;;;22.20
44429;BMP180;30134;47.866;-4.222;2023-11-22T04:58:51;102752.00;;;22.20
44429;BMP180;30134;47.866;-4.222;2023-11-22T05:01:23;102743.00;;;22.20
44429;BMP180;30134;47.866;-4.222;2023-11-22T05:03:56;102747.00;;;22.20
44429;BMP180;30134;47.866;-4.222;2023-11-22T05:06:28;102742.00;;;22.20
44429;BMP180;30134;47.866;-4.222;2023-11-22T05:09:00;102739.00;;;22.10
44429;BMP180;30134;47.866;-4.222;2023-11-22T05:11:32;102744.00;;;22.20
44429;BMP180;30134;47.866;-4.222;2023-11-22T05:14:04;102743.00;;;22.10
44429;BMP180;30134;47.866;-4.222;2023-11-22T05:16:36;102738.00;;;22.20
44429;BMP180;30134;47.866;-4.222;2023-11-22T05:19:07;102742.00;;;22.20
44429;BMP180;30134;47.866;-4.222;2023-11-22T05:21:39;102746.00;;;22.20
44429;BMP180;30134;47.866;-4.222;2023-11-22T05:24:11;102757.00;;;22.20
44429;BMP180;30134;47.866;-4.222;2023-11-22T05:26:43;102749.00;;;22.20
44429;BMP180;30134;47.866;-4.222;2023-11-22T05:29:14;102756.00;;;22.20
44429;BMP180;30134;47.866;-4.222;2023-11-22T05:31:46;102755.00;;;22.20
44429;BMP180;30134;47.866;-4.222;2023-11-22T05:34:20;102751.00;;;22.20
44429;BMP180;30134;47.866;-4.222;2023-11-22T05:36:56;102750.00;;;22.20
44429;BMP180;30134;47.866;-4.222;2023-11-22T05:39:34;102759.00;;;22.20
44429;BMP180;30134;47.866;-4.222;2023-11-22T05:42:12;102756.00;;;22.20
44429;BMP180;30134;47.866;-4.222;2023-11-22T05:44:49;102760.00;;;22.20
44429;BMP180;30134;47.866;-4.222;2023-11-22T05:47:27;102749.00;;;22.20
44429;BMP180;30134;47.866;-4.222;2023-11-22T05:50:08;102740.00;;;22.20
44429;BMP180;30134;47.866;-4.222;2023-11-22T05:52:47;102743.00;;;22.20
44429;BMP180;30134;47.866;-4.222;2023-11-22T05:55:15;102740.00;;;22.20
44429;BMP180;30134;47.866;-4.222;2023-11-22T05:57:44;102739.00;;;22.20
44429;BMP180;30134;47.866;-4.222;2023-11-22T06:00:11;102738.00;;;22.20
44429;BMP180;30134;47.866;-4.222;2023-11-22T06:02:38;102743.00;;;22.20
44429;BMP180;30134;47.866;-4.222;2023-11-22T06:05:05;102758.00;;;22.20
44429;BMP180;30134;47.866;-4.222;2023-11-22T06:07:35;102768.00;;;22.30
44429;BMP180;30134;47.866;-4.222;2023-11-22T06:10:02;102772.00;;;22.20
44429;BMP180;30134;47.866;-4.222;2023-11-22T06:12:28;102770.00;;;22.30
44429;BMP180;30134;47.866;-4.222;2023-11-22T06:14:55;102770.00;;;22.30
44429;BMP180;30134;47.866;-4.222;2023-11-22T06:17:21;102774.00;;;22.20
44429;BMP180;30134;47.866;-4.222;2023-11-22T06:19:48;102767.00;;;22.30
44429;BMP180;30134;47.866;-4.222;2023-11-22T06:22:14;102774.00;;;22.30
44429;BMP180;30134;47.866;-4.222;2023-11-22T06:24:42;102774.00;;;22.30
44429;BMP180;30134;47.866;-4.222;2023-11-22T06:27:08;102786.00;;;22.30
44429;BMP180;30134;47.866;-4.222;2023-11-22T06:29:35;102790.00;;;22.20
44429;BMP180;30134;47.866;-4.222;2023-11-22T06:32:01;102791.00;;;22.20
44429;BMP180;30134;47.866;-4.222;2023-11-22T06:34:31;102783.00;;;22.20
44429;BMP180;30134;47.866;-4.222;2023-11-22T06:36:59;102779.00;;;22.30
44429;BMP180;30134;47.866;-4.222;2023-11-22T06:39:26;102783.00;;;22.20
44429;BMP180;30134;47.866;-4.222;2023-11-22T06:41:53;102783.00;;;22.30
44429;BMP180;30134;47.866;-4.222;2023-11-22T06:44:19;102778.00;;;22.40
44429;BMP180;30134;47.866;-4.222;2023-11-22T06:46:46;102781.00;;;22.40
44429;BMP180;30134;47.866;-4.222;2023-11-22T06:49:12;102786.00;;;22.30
44429;BMP180;30134;47.866;-4.222;2023-11-22T06:51:39;102782.00;;;22.30
44429;BMP180;30134;47.866;-4.222;2023-11-22T06:54:05;102776.00;;;22.30
44429;BMP180;30134;47.866;-4.222;2023-11-22T06:56:32;102789.00;;;22.30
44429;BMP180;30134;47.866;-4.222;2023-11-22T06:58:59;102780.00;;;22.30
44429;BMP180;30134;47.866;-4.222;2023-11-22T07:01:25;102784.00;;;22.30
44429;BMP180;30134;47.866;-4.222;2023-11-22T07:03:52;102780.00;;;22.40
44429;BMP180;30134;47.866;-4.222;2023-11-22T07:06:19;102787.00;;;22.40
44429;BMP180;30134;47.866;-4.222;2023-11-22T07:08:45;102788.00;;;22.40
44429;BMP180;30134;47.866;-4.222;2023-11-22T07:11:12;102799.00;;;22.40
44429;BMP180;30134;47.866;-4.222;2023-11-22T07:13:40;102805.00;;;22.40
44429;BMP180;30134;47.866;-4.222;2023-11-22T07:16:06;102806.00;;;22.40
44429;BMP180;30134;47.866;-4.222;2023-11-22T07:18:36;102803.00;;;22.40
44429;BMP180;30134;47.866;-4.222;2023-11-22T07:21:03;102816.00;;;22.40
44429;BMP180;30134;47.866;-4.222;2023-11-22T07:23:32;102819.00;;;22.40
44429;BMP180;30134;47.866;-4.222;2023-11-22T07:25:59;102829.00;;;22.40
44429;BMP180;30134;47.866;-4.222;2023-11-22T07:28:26;102831.00;;;22.40
44429;BMP180;30134;47.866;-4.222;2023-11-22T07:30:52;102831.00;;;22.40
44429;BMP180;30134;47.866;-4.222;2023-11-22T07:33:19;102827.00;;;22.40
44429;BMP180;30134;47.866;-4.222;2023-11-22T07:35:47;102832.00;;;22.40
44429;BMP180;30134;47.866;-4.222;2023-11-22T07:38:13;102834.00;;;22.40
44429;BMP180;30134;47.866;-4.222;2023-11-22T07:40:40;102832.00;;;22.40
44429;BMP180;30134;47.866;-4.222;2023-11-22T07:43:07;102836.00;;;22.40
44429;BMP180;30134;47.866;-4.222;2023-11-22T07:45:34;102843.00;;;22.40
44429;BMP180;30134;47.866;-4.222;2023-11-22T07:48:01;102850.00;;;22.40
44429;BMP180;30134;47.866;-4.222;2023-11-22T07:50:29;102856.00;;;22.40
44429;BMP180;30134;47.866;-4.222;2023-11-22T07:52:56;102860.00;;;22.50
44429;BMP180;30134;47.866;-4.222;2023-11-22T07:55:23;102873.00;;;22.50
44429;BMP180;30134;47.866;-4.222;2023-11-22T07:57:49;102866.00;;;22.40
44429;BMP180;30134;47.866;-4.222;2023-11-22T08:00:17;102881.00;;;22.50
44429;BMP180;30134;47.866;-4.222;2023-11-22T08:02:48;102883.00;;;22.40
44429;BMP180;30134;47.866;-4.222;2023-11-22T08:05:16;102879.00;;;22.40
44429;BMP180;30134;47.866;-4.222;2023-11-22T08:07:43;102869.00;;;22.40
44429;BMP180;30134;47.866;-4.222;2023-11-22T08:10:12;102874.00;;;22.30
44429;BMP180;30134;47.866;-4.222;2023-11-22T08:12:48;102881.00;;;22.40
44429;BMP180;30134;47.866;-4.222;2023-11-22T08:15:17;102884.00;;;22.40
44429;BMP180;30134;47.866;-4.222;2023-11-22T08:17:45;102880.00;;;22.40
44429;BMP180;30134;47.866;-4.222;2023-11-22T08:20:12;102876.00;;;22.40
44429;BMP180;30134;47.866;-4.222;2023-11-22T08:22:43;102877.00;;;22.40
44429;BMP180;30134;47.866;-4.222;2023-11-22T08:25:11;102877.00;;;22.30
44429;BMP180;30134;47.866;-4.222;2023-11-22T08:27:39;102876.00;;;22.40
44429;BMP180;30134;47.866;-4.222;2023-11-22T08:30:10;102902.00;;;22.40
44429;BMP180;30134;47.866;-4.222;2023-11-22T08:32:41;102896.00;;;22.40
44429;BMP180;30134;47.866;-4.222;2023-11-22T08:35:09;102898.00;;;22.40
44429;BMP180;30134;47.866;-4.222;2023-11-22T08:37:36;102905.00;;;22.40
44429;BMP180;30134;47.866;-4.222;2023-11-22T08:40:06;102910.00;;;22.40
44429;BMP180;30134;47.866;-4.222;2023-11-22T08:42:33;102916.00;;;22.40
44429;BMP180;30134;47.866;-4.222;2023-11-22T08:45:00;102915.00;;;22.40
44429;BMP180;30134;47.866;-4.222;2023-11-22T08:47:26;102920.00;;;22.40
44429;BMP180;30134;47.866;-4.222;2023-11-22T08:49:52;102933.00;;;22.40
44429;BMP180;30134;47.866;-4.222;2023-11-22T08:52:19;102932.00;;;22.40
44429;BMP180;30134;47.866;-4.222;2023-11-22T08:54:46;102944.00;;;22.40
44429;BMP180;30134;47.866;-4.222;2023-11-22T08:57:12;102945.00;;;22.50
44429;BMP180;30134;47.866;-4.222;2023-11-22T08:59:38;102948.00;;;21.50
44429;BMP180;30134;47.866;-4.222;2023-11-22T09:02:05;102947.00;;;20.90
44429;BMP180;30134;47.866;-4.222;2023-11-22T09:04:33;102951.00;;;20.80
44429;BMP180;30134;47.866;-4.222;2023-11-22T09:07:01;102948.00;;;20.70
44429;BMP180;30134;47.866;-4.222;2023-11-22T09:09:27;102940.00;;;20.40
44429;BMP180;30134;47.866;-4.222;2023-11-22T09:12:00;102933.00;;;20.30
44429;BMP180;30134;47.866;-4.222;2023-11-22T09:14:27;102937.00;;;20.30
44429;BMP180;30134;47.866;-4.222;2023-11-22T09:16:54;102936.00;;;20.20
44429;BMP180;30134;47.866;-4.222;2023-11-22T09:19:24;102940.00;;;20.00
44429;BMP180;30134;47.866;-4.222;2023-11-22T09:21:54;102946.00;;;19.90
44429;BMP180;30134;47.866;-4.222;2023-11-22T09:24:20;102949.00;;;19.80
44429;BMP180;30134;47.866;-4.222;2023-11-22T09:26:47;102940.00;;;19.70
44429;BMP180;30134;47.866;-4.222;2023-11-22T09:29:13;102951.00;;;19.80
44429;BMP180;30134;47.866;-4.222;2023-11-22T09:31:40;102950.00;;;19.80
44429;BMP180;30134;47.866;-4.222;2023-11-22T09:34:12;102953.00;;;19.80
44429;BMP180;30134;47.866;-4.222;2023-11-22T09:36:39;102956.00;;;19.70
44429;BMP180;30134;47.866;-4.222;2023-11-22T09:39:06;102948.00;;;19.80
44429;BMP180;30134;47.866;-4.222;2023-11-22T09:41:35;102943.00;;;19.70
44429;BMP180;30134;47.866;-4.222;2023-11-22T09:44:02;102936.00;;;19.70
44429;BMP180;30134;47.866;-4.222;2023-11-22T09:46:30;102937.00;;;19.70
44429;BMP180;30134;47.866;-4.222;2023-11-22T09:49:01;102934.00;;;19.70
44429;BMP180;30134;47.866;-4.222;2023-11-22T09:51:32;102937.00;;;19.70
44429;BMP180;30134;47.866;-4.222;2023-11-22T09:54:04;102934.00;;;19.70
44429;BMP180;30134;47.866;-4.222;2023-11-22T09:56:34;102938.00;;;19.60
44429;BMP180;30134;47.866;-4.222;2023-11-22T09:59:04;102953.00;;;19.60
44429;BMP180;30134;47.866;-4.222;2023-11-22T10:01:33;102948.00;;;19.60
44429;BMP180;30134;47.866;-4.222;2023-11-22T10:04:03;102947.00;;;19.50
44429;BMP180;30134;47.866;-4.222;2023-11-22T10:06:32;102943.00;;;19.50
44429;BMP180;30134;47.866;-4.222;2023-11-22T10:09:02;102941.00;;;19.50
44429;BMP180;30134;47.866;-4.222;2023-11-22T10:11:34;102941.00;;;19.50
44429;BMP180;30134;47.866;-4.222;2023-11-22T10:14:02;102950.00;;;19.60
44429;BMP180;30134;47.866;-4.222;2023-11-22T10:16:29;102935.00;;;19.50
44429;BMP180;30134;47.866;-4.222;2023-11-22T10:18:55;102955.00;;;19.50
44429;BMP180;30134;47.866;-4.222;2023-11-22T10:21:27;102951.00;;;19.50
44429;BMP180;30134;47.866;-4.222;2023-11-22T10:23:56;102956.00;;;19.50
44429;BMP180;30134;47.866;-4.222;2023-11-22T10:26:23;102946.00;;;19.50
44429;BMP180;30134;47.866;-4.222;2023-11-22T10:28:57;102949.00;;;19.50
44429;BMP180;30134;47.866;-4.222;2023-11-22T10:31:25;102946.00;;;19.50
44429;BMP180;30134;47.866;-4.222;2023-11-22T10:33:52;102952.00;;;19.50
44429;BMP180;30134;47.866;-4.222;2023-11-22T10:36:19;102958.00;;;19.40
44429;BMP180;30134;47.866;-4.222;2023-11-22T10:38:47;102960.00;;;19.50
44429;BMP180;30134;47.866;-4.222;2023-11-22T10:41:14;102960.00;;;19.50
44429;BMP180;30134;47.866;-4.222;2023-11-22T10:43:41;102944.00;;;19.50
44429;BMP180;30134;47.866;-4.222;2023-11-22T10:46:08;102966.00;;;19.40
44429;BMP180;30134;47.866;-4.222;2023-11-22T10:48:36;102966.00;;;19.40
44429;BMP180;30134;47.866;-4.222;2023-11-22T10:51:04;102961.00;;;19.40
44429;BMP180;30134;47.866;-4.222;2023-11-22T10:53:37;102937.00;;;19.40
44429;BMP180;30134;47.866;-4.222;2023-11-22T10:56:19;102954.00;;;19.40
44429;BMP180;30134;47.866;-4.222;2023-11-22T10:58:55;102941.00;;;19.40
44429;BMP180;30134;47.866;-4.222;2023-11-22T11:01:24;102936.00;;;19.40
44429;BMP180;30134;47.866;-4.222;2023-11-22T11:04:11;102927.00;;;19.40
44429;BMP180;30134;47.866;-4.222;2023-11-22T11:06:45;102927.00;;;19.40
44429;BMP180;30134;47.866;-4.222;2023-11-22T11:09:13;102924.00;;;19.40
44429;BMP180;30134;47.866;-4.222;2023-11-22T11:11:44;102930.00;;;19.40
44429;BMP180;30134;47.866;-4.222;2023-11-22T11:14:10;102929.00;;;19.40
44429;BMP180;30134;47.866;-4.222;2023-11-22T11:16:39;102929.00;;;19.40
44429;BMP180;30134;47.866;-4.222;2023-11-22T11:19:15;102928.00;;;19.30
44429;BMP180;30134;47.866;-4.222;2023-11-22T11:21:43;102927.00;;;19.50
44429;BMP180;30134;47.866;-4.222;2023-11-22T11:24:10;102927.00;;;19.20
44429;BMP180;30134;47.866;-4.222;2023-11-22T11:26:36;102925.00;;;19.00
44429;BMP180;30134;47.866;-4.222;2023-11-22T11:29:02;102928.00;;;19.10
44429;BMP180;30134;47.866;-4.222;2023-11-22T11:31:34;102938.00;;;19.20
44429;BMP180;30134;47.866;-4.222;2023-11-22T11:34:08;102935.00;;;19.20
44429;BMP180;30134;47.866;-4.222;2023-11-22T11:36:37;102927.00;;;19.20
44429;BMP180;30134;47.866;-4.222;2023-11-22T11:39:07;102926.00;;;19.20
44429;BMP180;30134;47.866;-4.222;2023-11-22T11:41:41;102921.00;;;19.20
44429;BMP180;30134;47.866;-4.222;2023-11-22T11:44:08;102921.00;;;19.20
44429;BMP180;30134;47.866;-4.222;2023-11-22T11:46:39;102917.00;;;19.30
44429;BMP180;30134;47.866;-4.222;2023-11-22T11:49:12;102923.00;;;19.20
44429;BMP180;30134;47.866;-4.222;2023-11-22T11:51:39;102915.00;;;19.20
44429;BMP180;30134;47.866;-4.222;2023-11-22T11:54:06;102923.00;;;19.20
44429;BMP180;30134;47.866;-4.222;2023-11-22T11:56:34;102920.00;;;19.30
44429;BMP180;30134;47.866;-4.222;2023-11-22T11:59:02;102924.00;;;19.30
44429;BMP180;30134;47.866;-4.222;2023-11-22T12:01:29;102913.00;;;19.20
44429;BMP180;30134;47.866;-4.222;2023-11-22T12:03:56;102912.00;;;19.20
44429;BMP180;30134;47.866;-4.222;2023-11-22T12:06:23;102913.00;;;19.20
44429;BMP180;30134;47.866;-4.222;2023-11-22T12:08:49;102909.00;;;19.30
44429;BMP180;30134;47.866;-4.222;2023-11-22T12:11:16;102911.00;;;19.30
44429;BMP180;30134;47.866;-4.222;2023-11-22T12:13:46;102911.00;;;19.30
44429;BMP180;30134;47.866;-4.222;2023-11-22T12:16:15;102905.00;;;19.40
44429;BMP180;30134;47.866;-4.222;2023-11-22T12:18:49;102902.00;;;19.30
44429;BMP180;30134;47.866;-4.222;2023-11-22T12:21:17;102903.00;;;19.30
44429;BMP180;30134;47.866;-4.222;2023-11-22T12:23:46;102908.00;;;19.20
44429;BMP180;30134;47.866;-4.222;2023-11-22T12:26:14;102913.00;;;19.30
44429;BMP180;30134;47.866;-4.222;2023-11-22T12:28:45;102910.00;;;19.40
44429;BMP180;30134;47.866;-4.222;2023-11-22T12:31:13;102910.00;;;19.70
44429;BMP180;30134;47.866;-4.222;2023-11-22T12:33:41;102924.00;;;20.00
44429;BMP180;30134;47.866;-4.222;2023-11-22T12:36:10;102924.00;;;20.00
44429;BMP180;30134;47.866;-4.222;2023-11-22T12:38:37;102921.00;;;20.10
44429;BMP180;30134;47.866;-4.222;2023-11-22T12:41:05;102915.00;;;20.20
44429;BMP180;30134;47.866;-4.222;2023-11-22T12:43:33;102911.00;;;20.20
44429;BMP180;30134;47.866;-4.222;2023-11-22T12:46:05;102908.00;;;20.30
44429;BMP180;30134;47.866;-4.222;2023-11-22T12:48:41;102910.00;;;20.40
44429;BMP180;30134;47.866;-4.222;2023-11-22T12:51:17;102914.00;;;20.40
44429;BMP180;30134;47.866;-4.222;2023-11-22T12:53:48;102912.00;;;20.50
44429;BMP180;30134;47.866;-4.222;2023-11-22T12:56:15;102919.00;;;20.60
44429;BMP180;30134;47.866;-4.222;2023-11-22T12:58:42;102920.00;;;20.60
44429;BMP180;30134;47.866;-4.222;2023-11-22T13:01:08;102905.00;;;20.60
44429;BMP180;30134;47.866;-4.222;2023-11-22T13:03:34;102912.00;;;20.70
44429;BMP180;30134;47.866;-4.222;2023-11-22T13:06:00;102912.00;;;20.70
44429;BMP180;30134;47.866;-4.222;2023-11-22T13:08:26;102907.00;;;20.80
44429;BMP180;30134;47.866;-4.222;2023-11-22T13:10:55;102898.00;;;20.90
44429;BMP180;30134;47.866;-4.222;2023-11-22T13:13:26;102883.00;;;20.90
44429;BMP180;30134;47.866;-4.222;2023-11-22T13:15:53;102881.00;;;20.90
44429;BMP180;30134;47.866;-4.222;2023-11-22T13:18:20;102880.00;;;20.90
44429;BMP180;30134;47.866;-4.222;2023-11-22T13:20:48;102881.00;;;20.90
44429;BMP180;30134;47.866;-4.222;2023-11-22T13:23:17;102873.00;;;21.00
44429;BMP180;30134;47.866;-4.222;2023-11-22T13:25:44;102872.00;;;21.00
44429;BMP180;30134;47.866;-4.222;2023-11-22T13:28:13;102868.00;;;21.00
44429;BMP180;30134;47.866;-4.222;2023-11-22T13:30:40;102864.00;;;21.10
44429;BMP180;30134;47.866;-4.222;2023-11-22T13:33:08;102861.00;;;21.10
44429;BMP180;30134;47.866;-4.222;2023-11-22T13:35:37;102861.00;;;21.10
44429;BMP180;30134;47.866;-4.222;2023-11-22T13:38:07;102866.00;;;21.10
44429;BMP180;30134;47.866;-4.222;2023-11-22T13:40:40;102872.00;;;21.20
44429;BMP180;30134;47.866;-4.222;2023-11-22T13:43:10;102864.00;;;21.20
44429;BMP180;30134;47.866;-4.222;2023-11-22T13:45:41;102868.00;;;21.20
44429;BMP180;30134;47.866;-4.222;2023-11-22T13:48:13;102872.00;;;21.20
44429;BMP180;30134;47.866;-4.222;2023-11-22T13:50:45;102868.00;;;21.30
44429;BMP180;30134;47.866;-4.222;2023-11-22T13:53:26;102866.00;;;21.30